This is the latest recevied weather packets stored in our database for station/object OK3MS-5. If no packets are shown the sender has not sent any weather packets the latest 1 day(s).
| Time | Temp. | Humidity | Pressure | Rain* | Wind** | Luminosity | Snow |
|---|---|---|---|---|---|---|---|
| 1778095206 | 16.67° C | 59% | 1002 hPa | 0 mm | - | 0 W/m² | - |
| 1778094912 | 16.11° C | 63% | 1001.8 hPa | 0 mm | - | 0 W/m² | - |
| 1778094603 | 15.56° C | 62% | 1001.8 hPa | 0 mm | - | 0 W/m² | - |
| 1778094306 | 15.56° C | 69% | 1001.8 hPa | 0 mm | - | 0 W/m² | - |
| 1778091312 | 16.67° C | 64% | 1000.9 hPa | 0 mm | - | 2 W/m² | - |
| 1778088604 | 20° C | 52% | 1000 hPa | 0 mm | - | 21 W/m² | - |
| 1778088309 | 20° C | 51% | 1000 hPa | 0 mm | - | 24 W/m² | - |
| 1778087104 | 20.56° C | 49% | 999.9 hPa | 0 mm | - | 30 W/m² | - |
| 1778086204 | 21.11° C | 48% | 1000.2 hPa | 0 mm | - | 30 W/m² | - |
| 1778083504 | 21.67° C | 48% | 1000.5 hPa | 0 mm | - | 206 W/m² | - |
| 1778081705 | 22.78° C | 45% | 1000.5 hPa | 0 mm | - | 325 W/m² | - |
| 1778081105 | 22.22° C | 48% | 1000.8 hPa | 0 mm | - | 275 W/m² | - |
| 1778080204 | 20.56° C | 53% | 1001.2 hPa | 0 mm | - | 208 W/m² | - |
| 1778079906 | 20.56° C | 54% | 1001.2 hPa | 0 mm | - | 136 W/m² | - |
| 1778079304 | 21.11° C | 50% | 1001.3 hPa | 0 mm | - | 61 W/m² | - |
| 1778079002 | 21.67° C | 48% | 1001.2 hPa | 0 mm | - | 78 W/m² | - |
| 1778077503 | 22.22° C | 44% | 1001.2 hPa | 0 mm | - | 131 W/m² | - |
| 1778076606 | 21.67° C | 45% | 1001.3 hPa | 0 mm | - | 196 W/m² | - |
| 1778075706 | 22.78° C | 44% | 1001.3 hPa | 0 mm | - | 222 W/m² | - |
| 1778074802 | 21.11° C | 49% | 1002.1 hPa | 0 mm | - | 132 W/m² | - |
| 1778073305 | 21.11° C | 48% | 1002.4 hPa | 0 mm | - | 159 W/m² | - |
| 1778072705 | 21.67° C | 46% | 1002.3 hPa | 0 mm | - | 146 W/m² | - |
| 1778070306 | 21.11° C | 46% | 1002.9 hPa | 0 mm | - | 223 W/m² | - |
| 1778070005 | 21.67° C | 45% | 1002.9 hPa | 0 mm | - | 278 W/m² | - |
| 1778068503 | 21.11° C | 45% | 1003.5 hPa | 0 mm | - | 225 W/m² | - |
* Rain latest hour (hover to see other rain measurements)
** Current wind speed in m/s (hover to see current wind gust speed)